Map

Track Data

SID SEASON NUMBER BASIN SUBBASIN NAME ISO_TIME NATURE LAT LON WMO_WIND WMO_PRES WMO_AGENCY TRACK_TYPE DIST2LAND LANDFALL IFLAG USA_AGENCY USA_ATCF_ID USA_LAT USA_LON USA_RECORD USA_STATUS USA_WIND USA_PRES USA_SSHS USA_R34_NE USA_R34_SE USA_R34_SW USA_R34_NW USA_R50_NE USA_R50_SE USA_R50_SW USA_R50_NW USA_R64_NE USA_R64_SE USA_R64_SW USA_R64_NW USA_POCI USA_ROCI USA_RMW USA_EYE TOKYO_LAT TOKYO_LON TOKYO_GRADE TOKYO_WIND TOKYO_PRES TOKYO_R50_DIR TOKYO_R50_LONG TOKYO_R50_SHORT TOKYO_R30_DIR TOKYO_R30_LONG TOKYO_R30_SHORT TOKYO_LAND CMA_LAT CMA_LON CMA_CAT CMA_WIND CMA_PRES HKO_LAT HKO_LON HKO_CAT HKO_WIND HKO_PRES NEWDELHI_LAT NEWDELHI_LON NEWDELHI_GRADE NEWDELHI_WIND NEWDELHI_PRES NEWDELHI_CI NEWDELHI_DP NEWDELHI_POCI REUNION_LAT REUNION_LON REUNION_TYPE REUNION_WIND REUNION_PRES REUNION_TNUM REUNION_CI REUNION_RMW REUNION_R34_NE REUNION_R34_SE REUNION_R34_SW REUNION_R34_NW REUNION_R50_NE REUNION_R50_SE REUNION_R50_SW REUNION_R50_NW REUNION_R64_NE REUNION_R64_SE REUNION_R64_SW REUNION_R64_NW BOM_LAT BOM_LON BOM_TYPE BOM_WIND BOM_PRES BOM_TNUM BOM_CI BOM_RMW BOM_R34_NE BOM_R34_SE BOM_R34_SW BOM_R34_NW BOM_R50_NE BOM_R50_SE BOM_R50_SW BOM_R50_NW BOM_R64_NE BOM_R64_SE BOM_R64_SW BOM_R64_NW BOM_ROCI BOM_POCI BOM_EYE BOM_POS_METHOD BOM_PRES_METHOD NADI_LAT NADI_LON NADI_CAT NADI_WIND NADI_PRES WELLINGTON_LAT WELLINGTON_LON WELLINGTON_WIND WELLINGTON_PRES DS824_LAT DS824_LON DS824_STAGE DS824_WIND DS824_PRES TD9636_LAT TD9636_LON TD9636_STAGE TD9636_WIND TD9636_PRES TD9635_LAT TD9635_LON TD9635_WIND TD9635_PRES TD9635_ROCI NEUMANN_LAT NEUMANN_LON NEUMANN_CLASS NEUMANN_WIND NEUMANN_PRES MLC_LAT MLC_LON MLC_CLASS MLC_WIND MLC_PRES USA_GUST BOM_GUST BOM_GUST_PER REUNION_GUST REUNION_GUST_PER USA_SEAHGT USA_SEARAD_NE USA_SEARAD_SE USA_SEARAD_SW USA_SEARAD_NW STORM_SPEED STORM_DIR
1928237N18089 1928 47 NI BB NOT_NAMED 1928-08-24 00:00:00 TS 17.7000 89.2000 main 391 383 _________O____ -1 17.7000 89.2000 TC 30 3 270
1928237N18089 1928 47 NI BB NOT_NAMED 1928-08-24 03:00:00 TS 17.7000 89.0583 main 383 367 _________PO___ -1 17.7001 88.9875 TC 30 17.7000 89.2000 1 3 270
1928237N18089 1928 47 NI BB NOT_NAMED 1928-08-24 06:00:00 TS 17.6976 88.8862 main 367 353 _________OP___ -1 17.7000 88.8000 TC 30 17.6940 89.0156 1 3 269
1928237N18089 1928 47 NI BB NOT_NAMED 1928-08-24 09:00:00 TS 17.6958 88.7293 main 353 346 _________PP___ -1 17.7000 88.6500 TC 30 17.6903 88.8350 1 3 270
1928237N18089 1928 47 NI BB NOT_NAMED 1928-08-24 12:00:00 TS 17.6957 88.5809 main 346 332 _________OP___ -1 17.7000 88.5000 TC 30 17.6914 88.6619 1 3 270
1928237N18089 1928 47 NI BB NOT_NAMED 1928-08-24 15:00:00 TS 17.6963 88.4000 main 332 319 _________PO___ -1 17.6925 88.3000 TC 30 17.7000 88.5000 1 3 272
1928237N18089 1928 47 NI BB NOT_NAMED 1928-08-24 18:00:00 TS 17.7088 88.2247 main 319 313 _________OP___ -1 17.7000 88.1000 TC 30 17.7176 88.3494 1 3 279
1928237N18089 1928 47 NI BB NOT_NAMED 1928-08-24 21:00:00 TS 17.7423 88.0800 main 313 292 _________PP___ -1 17.7424 87.9650 TC 30 17.7421 88.1950 1 3 284
1928237N18089 1928 47 NI BB NOT_NAMED 1928-08-25 00:00:00 TS 17.7853 87.9090 main 292 281 _________OP___ -1 17.8000 87.8000 TC 30 17.7706 88.0181 1 4 282
1928237N18089 1928 47 NI BB NOT_NAMED 1928-08-25 03:00:00 TS 17.8288 87.6650 main 281 257 _________PO___ -1 17.8575 87.5300 TC 30 17.8000 87.8000 1 5 278
1928237N18089 1928 47 NI BB NOT_NAMED 1928-08-25 06:00:00 TS 17.8585 87.3570 main 257 242 _________OP___ -1 17.9000 87.2000 TC 30 17.8170 87.5140 1 6 274
1928237N18089 1928 47 NI BB NOT_NAMED 1928-08-25 09:00:00 TS 17.8676 87.0186 main 242 232 _________PP___ -1 17.9000 86.8499 TC 30 17.8352 87.1873 1 7 272
1928237N18089 1928 47 NI BB NOT_NAMED 1928-08-25 12:00:00 TS 17.8804 86.6710 main 232 215 _________OP___ -1 17.9000 86.5000 TC 30 17.8608 86.8420 1 6 274
1928237N18089 1928 47 NI BB NOT_NAMED 1928-08-25 15:00:00 TS 17.9175 86.3462 main 205 181 _________PO___ -1 17.9349 86.1925 TC 30 17.9000 86.5000 1 6 279
1928237N18089 1928 47 NI BB NOT_NAMED 1928-08-25 18:00:00 TS 17.9699 86.0564 main 181 155 _________OP___ -1 18.0000 85.9000 TC 30 17.9399 86.2128 1 6 282
1928237N18089 1928 47 NI BB NOT_NAMED 1928-08-25 21:00:00 TS 18.0371 85.7759 main 155 123 _________PP___ -1 18.0773 85.6224 TC 30 17.9969 85.9294 1 6 287
1928237N18089 1928 47 NI BB NOT_NAMED 1928-08-26 00:00:00 TS 18.1402 85.4657 main 123 76 _________OP___ -1 18.2000 85.3000 TC 30 18.0804 85.6314 1 7 291
1928237N18089 1928 47 NI BB NOT_NAMED 1928-08-26 03:00:00 TS 18.2925 85.0826 main 76 30 _________PO___ -1 18.3851 84.8651 TC 30 18.2000 85.3000 1 9 294
1928237N18089 1928 47 NI BB NOT_NAMED 1928-08-26 06:00:00 TS 18.4822 84.6475 main 23 0 _________OP___ -1 18.6000 84.4000 TC 30 18.3644 84.8951 1 9 295
1928237N18089 1928 47 NI BB NOT_NAMED 1928-08-26 09:00:00 TS 18.6814 84.2215 main 0 0 _________PP___ -1 18.7999 83.9849 TC 30 18.5630 84.4580 1 9 297
1928237N18089 1928 47 NI BB NOT_NAMED 1928-08-26 12:00:00 TS 18.8900 83.8084 main 0 0 _________OP___ -1 19.0000 83.6000 TC 30 18.7800 84.0169 1 9 299
1928237N18089 1928 47 NI BB NOT_NAMED 1928-08-26 15:00:00 TS 19.1000 83.4175 main 0 0 _________PO___ -1 19.1999 83.2349 TC 30 19.0000 83.6000 1 8 301
1928237N18089 1928 47 NI BB NOT_NAMED 1928-08-26 18:00:00 TS 19.3018 83.0689 main 0 0 _________OP___ -1 19.4000 82.9000 TC 30 19.2037 83.2379 1 8 303
1928237N18089 1928 47 NI BB NOT_NAMED 1928-08-26 21:00:00 TS 19.5072 82.7486 main 0 0 _________PP___ -1 19.6074 82.5924 TC 30 19.4071 82.9047 1 7 304
1928237N18089 1928 47 NI BB NOT_NAMED 1928-08-27 00:00:00 TS 19.7035 82.4471 main 0 0 _________OP___ -1 19.8000 82.3000 TC 30 19.6069 82.5942 1 7 303
1928237N18089 1928 47 NI BB NOT_NAMED 1928-08-27 03:00:00 TS 19.8750 82.1462 main 0 0 _________PO___ -1 19.9500 81.9924 TC 30 19.8000 82.3000 1 7 301
1928237N18089 1928 47 NI BB NOT_NAMED 1928-08-27 06:00:00 TS 20.0389 81.8551 main 0 0 _________OP___ -1 20.1000 81.7000 TC 30 19.9779 82.0103 1 6 304
1928237N18089 1928 47 NI BB NOT_NAMED 1928-08-27 09:00:00 TS 20.2210 81.5922 main 0 0 _________PP___ -1 20.2924 81.4499 TC 30 20.1497 81.7345 1 6 307
1928237N18089 1928 47 NI BB NOT_NAMED 1928-08-27 12:00:00 TS 20.4108 81.3333 main 0 0 _________OP___ -1 20.5000 81.2000 TC 30 20.3216 81.4665 1 6 307
1928237N18089 1928 47 NI BB NOT_NAMED 1928-08-27 15:00:00 TS 20.6000 81.0500 main 0 0 _________PO___ -1 20.7000 80.9000 TC 30 20.5000 81.2000 1 7 306
1928237N18089 1928 47 NI BB NOT_NAMED 1928-08-27 18:00:00 TS 20.7964 80.7604 main 0 0 _________OP___ -1 20.9000 80.6000 TC 30 20.6927 80.9208 1 7 307
1928237N18089 1928 47 NI BB NOT_NAMED 1928-08-27 21:00:00 TS 20.9962 80.4924 main 0 0 _________PP___ -1 21.0999 80.3424 TC 30 20.8924 80.6423 1 6 309
1928237N18089 1928 47 NI BB NOT_NAMED 1928-08-28 00:00:00 TS 21.1979 80.2338 main 0 0 _________OP___ -1 21.3000 80.1000 TC 30 21.0959 80.3677 1 6 310
1928237N18089 1928 47 NI BB NOT_NAMED 1928-08-28 03:00:00 TS 21.4000 79.9750 main 0 0 _________PO___ -1 21.5000 79.8499 TC 30 21.3000 80.1000 1 6 310
1928237N18089 1928 47 NI BB NOT_NAMED 1928-08-28 06:00:00 TS 21.5999 79.7233 main 0 0 _________OP___ -1 21.7000 79.6000 TC 30 21.4998 79.8466 1 6 311
1928237N18089 1928 47 NI BB NOT_NAMED 1928-08-28 09:00:00 TS 21.7998 79.4785 main 0 0 _________PP___ -1 21.8999 79.3574 TC 30 21.6997 79.5996 1 6 311
1928237N18089 1928 47 NI BB NOT_NAMED 1928-08-28 12:00:00 TS 21.9999 79.2264 main 0 0 _________OP___ -1 22.1000 79.1000 TC 30 21.8998 79.3528 1 6 309
1928237N18089 1928 47 NI BB NOT_NAMED 1928-08-28 15:00:00 TS 22.2000 78.9500 main 0 0 _________PO___ -1 22.3000 78.8000 TC 30 22.1000 79.1000 1 7 307
1928237N18089 1928 47 NI BB NOT_NAMED 1928-08-28 18:00:00 TS 22.4000 78.6600 main 0 0 _________OP___ -1 22.5000 78.5000 TC 30 22.3001 78.8199 1 7 307
1928237N18089 1928 47 NI BB NOT_NAMED 1928-08-28 21:00:00 TS 22.6000 78.3849 main 0 0 _________PP___ -1 22.7000 78.2349 TC 30 22.5001 78.5350 1 6 309
1928237N18089 1928 47 NI BB NOT_NAMED 1928-08-29 00:00:00 TS 22.8000 78.1287 main 0 0 _________OP___ -1 22.9000 78.0000 TC 30 22.7001 78.2575 1 6 312
1928237N18089 1928 47 NI AS NOT_NAMED 1928-08-29 03:00:00 TS 23.0000 77.8962 main 0 0 _________PO___ -1 23.0999 77.7924 TC 30 22.9000 78.0000 1 6 315
1928237N18089 1928 47 NI AS NOT_NAMED 1928-08-29 06:00:00 TS 23.2019 77.6891 main 0 0 _________OP___ -1 23.3000 77.6000 TC 30 23.1038 77.7782 1 6 317
1928237N18089 1928 47 NI AS NOT_NAMED 1928-08-29 09:00:00 TS 23.4073 77.4886 main 0 0 _________PP___ -1 23.5075 77.4000 TC 30 23.3072 77.5771 1 5 318
1928237N18089 1928 47 NI AS NOT_NAMED 1928-08-29 12:00:00 TS 23.6035 77.2938 main 0 0 _________OP___ -1 23.7000 77.2000 TC 30 23.5070 77.3876 1 5 316
1928237N18089 1928 47 NI AS NOT_NAMED 1928-08-29 15:00:00 TS 23.7750 77.0999 main 0 0 _________PO___ -1 23.8500 76.9999 TC 30 23.7000 77.2000 1 5 313
1928237N18089 1928 47 NI AS NOT_NAMED 1928-08-29 18:00:00 TS 23.9411 76.8979 main 0 0 _________OP___ -1 24.0000 76.8000 TC 30 23.8821 76.9958 1 5 314
1928237N18089 1928 47 NI AS NOT_NAMED 1928-08-29 21:00:00 TS 24.1287 76.6961 main 0 0 _________PP___ -1 24.2000 76.6000 TC 30 24.0574 76.7923 1 5 316
1928237N18089 1928 47 NI AS NOT_NAMED 1928-08-30 00:00:00 TS 24.3145 76.4963 main 0 0 _________OP___ -1 24.4000 76.4000 TC 30 24.2290 76.5927 1 5 313
1928237N18089 1928 47 NI AS NOT_NAMED 1928-08-30 03:00:00 TS 24.4750 76.2962 main 0 0 _________PO___ -1 24.5500 76.1924 TC 30 24.4000 76.4000 1 5 312
1928237N18089 1928 47 NI AS NOT_NAMED 1928-08-30 06:00:00 TS 24.6375 76.1068 main 0 0 _________OP___ -1 24.7000 76.0000 TC 30 24.5749 76.2136 1 5 317
1928237N18089 1928 47 NI AS NOT_NAMED 1928-08-30 09:00:00 TS 24.8249 75.9386 main 0 0 _________PP___ -1 24.9000 75.8425 TC 30 24.7499 76.0348 1 5 322
1928237N18089 1928 47 NI AS NOT_NAMED 1928-08-30 12:00:00 TS 25.0125 75.7818 main 0 0 _________OP___ -1 25.1000 75.7000 TC 30 24.9249 75.8636 1 5 321
1928237N18089 1928 47 NI AS NOT_NAMED 1928-08-30 15:00:00 TS 25.1750 75.6250 main 0 0 _________PO___ -1 25.2500 75.5499 TC 30 25.1000 75.7000 1 4 317
1928237N18089 1928 47 NI AS NOT_NAMED 1928-08-30 18:00:00 TS 25.2967 75.4847 main 0 0 _________OP___ -1 25.4000 75.4000 TC 30 25.1935 75.5695 1 3 315
1928237N18089 1928 47 NI AS NOT_NAMED 1928-08-30 21:00:00 TS 25.4122 75.3607 main 0 0 _________PP___ -1 25.5249 75.2793 TC 30 25.2995 75.4421 1 4 323
1928237N18089 1928 47 NI AS NOT_NAMED 1928-08-31 00:00:00 TS 25.6404 75.1969 main 0 0 _________OP___ -1 25.8000 75.1000 TC 30 25.4809 75.2938 1 8 331
1928237N18089 1928 47 NI AS NOT_NAMED 1928-08-31 03:00:00 TS 26.0876 74.9365 main 0 0 _________PO___ -1 26.3752 74.7730 TC 30 25.8000 75.1000 1 12 333
1928237N18089 1928 47 NI AS NOT_NAMED 1928-08-31 06:00:00 TS 26.7078 74.6034 main 0 0 _________OP___ -1 27.1000 74.4000 TC 30 26.3157 74.8069 1 14 335
1928237N18089 1928 47 NI AS NOT_NAMED 1928-08-31 09:00:00 TS 27.3780 74.2762 main 0 0 _________PP___ -1 27.7849 74.0846 TC 30 26.9711 74.4677 1 15 338
1928237N18089 1928 47 NI AS NOT_NAMED 1928-08-31 12:00:00 TS 28.1079 73.9596 main 0 0 _________OP___ -1 28.5000 73.8000 TC 30 27.7158 74.1193 1 16 340
1928237N18089 1928 47 NI AS NOT_NAMED 1928-08-31 15:00:00 TS 28.8675 73.6637 main 0 0 _________PO___ -1 29.2350 73.5273 TC 30 28.5000 73.8000 1 16 343
1928237N18089 1928 47 NI AS NOT_NAMED 1928-08-31 18:00:00 TS 29.5903 73.4372 main 0 0 _________OP___ -1 30.0000 73.3000 TC 30 29.2831 73.5401 1 15 346
1928237N18089 1928 47 NI AS NOT_NAMED 1928-08-31 21:00:00 TS 30.3525 73.2523 main 0 0 _________PP___ -1 30.7925 73.1328 TC 30 30.0592 73.3319 1 15 349
1928237N18089 1928 47 NI AS NOT_NAMED 1928-09-01 00:00:00 TS 31.0872 73.1053 main 0 0 _________OP___ -1 31.6000 73.0000 TC 30 30.8307 73.1579 1 13 350
1928237N18089 1928 47 NI AS NOT_NAMED 1928-09-01 03:00:00 NR 31.6000 73.0000 main 0 __________O___ -1 TC 31.6000 73.0000 1 10 350

About IBTrACS Database

This database is a web-friendly format of International Best Track Archive for Climate Stewardship (IBTrACS), a global best track data archive curated by NOAA dating back to 1842.

Updated: 2021-10-25